Aviation Digital Data Service (ADDS)

Output produced by METARs form (1528 UTC 19 January 2018)
found at http://aviationweather.gov/adds/metars/
 
KLBX 191453Z AUTO 08011KT 6SM -RA BR FEW047 SCT080 OVC090 06/04 A3029 RMK AO2 SLP256 P0007 60018 T00610044 56001